createdAt,value
2022-12-04T00:02:25.226Z,65.05
2022-12-04T00:04:51.891Z,59.67
2022-12-04T00:07:18.574Z,63.35
2022-12-04T00:09:45.375Z,71.85
2022-12-04T00:12:12.005Z,68.13
2022-12-04T00:15:00.813Z,63.00
2022-12-04T00:17:25.104Z,67.22
2022-12-04T00:19:51.910Z,67.53
2022-12-04T00:22:21.143Z,60.33
2022-12-04T00:24:47.742Z,63.92
2022-12-04T00:27:14.278Z,67.90
2022-12-04T00:29:40.880Z,62.53
2022-12-04T00:32:07.538Z,64.57
2022-12-04T00:34:34.140Z,58.60
2022-12-04T00:37:00.779Z,66.78
2022-12-04T00:39:27.320Z,66.60
2022-12-04T00:41:53.889Z,58.60
2022-12-04T00:44:20.476Z,62.97
2022-12-04T00:46:47.088Z,60.72
2022-12-04T00:49:13.701Z,60.13
2022-12-04T00:51:40.269Z,57.63
2022-12-04T00:54:06.938Z,68.28
2022-12-04T00:56:33.589Z,60.13
2022-12-04T00:59:01.319Z,59.95
2022-12-04T01:01:28.952Z,64.63
2022-12-04T01:03:55.890Z,59.30
2022-12-04T01:06:25.783Z,59.38
2022-12-04T01:08:53.649Z,63.50
2022-12-04T01:11:21.059Z,62.10
2022-12-04T01:13:47.685Z,65.00
2022-12-04T01:16:22.751Z,59.58
2022-12-04T01:18:49.677Z,60.63
2022-12-04T01:21:16.722Z,63.33
2022-12-04T01:23:44.114Z,60.38
2022-12-04T01:26:11.295Z,59.72
2022-12-04T01:28:37.873Z,66.47
2022-12-04T01:31:07.115Z,59.58
2022-12-04T01:33:34.633Z,70.95
2022-12-04T01:36:02.430Z,62.47
2022-12-04T01:38:29.260Z,56.88
2022-12-04T01:40:56.467Z,59.17
2022-12-04T01:43:23.822Z,53.83
2022-12-04T01:45:53.499Z,63.28
2022-12-04T01:48:33.074Z,61.83
2022-12-04T01:51:07.901Z,75.57
2022-12-04T01:53:37.046Z,64.40
2022-12-04T01:56:04.723Z,63.38
2022-12-04T01:58:34.172Z,65.68
2022-12-04T02:01:08.185Z,64.38
2022-12-04T02:03:36.194Z,60.70
2022-12-04T02:06:02.801Z,62.15
2022-12-04T02:08:29.705Z,63.50
2022-12-04T02:11:07.779Z,61.03
2022-12-04T02:13:57.538Z,61.00
2022-12-04T02:16:39.718Z,59.42
2022-12-04T02:19:28.105Z,60.50
2022-12-04T02:21:56.213Z,61.25
2022-12-04T02:24:51.723Z,54.90
2022-12-04T02:27:39.519Z,62.83
2022-12-04T02:30:09.011Z,61.95
2022-12-04T02:33:11.807Z,55.55
2022-12-04T02:36:04.453Z,60.88
2022-12-04T02:38:30.989Z,60.88
2022-12-04T02:41:07.794Z,58.42
2022-12-04T02:43:49.008Z,57.72
2022-12-04T02:46:27.134Z,58.55
2022-12-04T02:53:52.477Z,61.58
2022-12-04T02:56:27.638Z,62.80
2022-12-04T02:59:06.044Z,58.10
2022-12-04T03:01:36.632Z,54.40
2022-12-04T03:04:22.293Z,52.95
2022-12-04T03:06:52.399Z,52.65
2022-12-04T03:09:25.569Z,58.58
2022-12-04T03:11:57.097Z,52.95
2022-12-04T03:14:27.902Z,56.67
2022-12-04T03:17:00.277Z,53.75
2022-12-04T03:19:28.859Z,48.83
2022-12-04T03:21:59.849Z,56.45
2022-12-04T03:24:31.864Z,57.90
2022-12-04T03:27:19.795Z,54.88
2022-12-04T03:29:55.156Z,58.80
2022-12-04T03:32:35.904Z,52.03
2022-12-04T03:35:13.859Z,58.03
2022-12-04T03:37:47.188Z,53.47
2022-12-04T03:40:19.750Z,62.67
2022-12-04T03:42:51.375Z,56.22
2022-12-04T03:45:31.647Z,53.22
2022-12-04T03:48:22.642Z,55.78
2022-12-04T03:50:53.839Z,52.55
2022-12-04T03:53:31.033Z,45.72
2022-12-04T03:56:10.826Z,49.75
2022-12-04T03:58:39.559Z,50.60
2022-12-04T04:01:07.997Z,59.17
2022-12-04T04:06:07.795Z,47.33
2022-12-04T04:08:36.470Z,60.80
2022-12-04T04:11:06.108Z,51.47
2022-12-04T04:13:59.519Z,52.80
2022-12-04T04:16:46.926Z,49.92
2022-12-04T04:19:34.113Z,53.70
2022-12-04T04:22:21.624Z,46.70
2022-12-04T04:24:53.920Z,51.63
2022-12-04T04:27:20.542Z,51.95
2022-12-04T04:29:52.284Z,44.97
2022-12-04T04:32:57.673Z,51.97
2022-12-04T04:35:37.303Z,42.22
2022-12-04T04:38:15.149Z,44.88
2022-12-04T04:40:49.968Z,42.17
2022-12-04T04:43:21.880Z,44.92
2022-12-04T04:45:52.978Z,45.08
2022-12-04T04:48:35.087Z,44.55
2022-12-04T04:51:03.518Z,44.13
2022-12-04T04:56:26.320Z,42.97
2022-12-04T04:58:52.887Z,40.17
2022-12-04T05:01:21.506Z,38.22
2022-12-04T05:03:48.323Z,34.72
2022-12-04T05:06:14.894Z,33.40
2022-12-04T05:08:41.550Z,37.28
2022-12-04T05:11:12.288Z,36.95
2022-12-04T05:13:38.847Z,37.85
2022-12-04T05:16:08.571Z,38.30
2022-12-04T05:18:35.541Z,36.42
2022-12-04T05:21:15.958Z,37.78
2022-12-04T05:23:42.574Z,32.88
2022-12-04T05:26:09.299Z,31.52
2022-12-04T05:28:35.869Z,30.30
2022-12-04T05:31:03.483Z,40.20
2022-12-04T05:33:30.816Z,28.85
2022-12-04T05:36:01.676Z,38.65
2022-12-04T05:38:28.627Z,31.92
2022-12-04T05:40:55.207Z,33.25
2022-12-04T05:43:21.758Z,35.05
2022-12-04T05:45:48.330Z,33.70
2022-12-04T05:48:15.413Z,39.53
2022-12-04T05:50:42.015Z,34.53
2022-12-04T05:53:08.598Z,35.75
2022-12-04T05:55:35.378Z,34.80
2022-12-04T05:58:02.569Z,29.10
2022-12-04T06:00:29.584Z,33.55
2022-12-04T06:02:56.222Z,34.67
2022-12-04T06:05:22.826Z,33.08
2022-12-04T06:07:49.427Z,36.20
2022-12-04T06:10:16.130Z,31.20
2022-12-04T06:12:43.093Z,38.80
2022-12-04T06:15:10.064Z,38.25
2022-12-04T06:17:36.640Z,30.17
2022-12-04T06:20:09.525Z,33.20
2022-12-04T06:22:37.954Z,30.77
2022-12-04T06:25:04.799Z,36.92
2022-12-04T06:27:31.402Z,34.08
2022-12-04T06:29:58.349Z,35.08
2022-12-04T06:32:25.226Z,29.05
2022-12-04T06:34:53.012Z,33.03
2022-12-04T06:37:20.819Z,32.15
2022-12-04T06:39:47.362Z,30.08
2022-12-04T06:42:13.970Z,34.00
2022-12-04T06:44:40.535Z,31.63
2022-12-04T06:47:07.130Z,33.78
2022-12-04T06:49:33.758Z,34.83
2022-12-04T06:52:00.400Z,39.35
2022-12-04T06:54:26.999Z,34.72
2022-12-04T06:56:53.638Z,32.13
2022-12-04T06:59:20.567Z,33.25
2022-12-04T07:01:47.171Z,36.28
2022-12-04T07:04:13.741Z,36.42
2022-12-04T07:06:40.496Z,38.10
2022-12-04T07:09:12.414Z,33.38
2022-12-04T07:11:39.929Z,35.13
2022-12-04T07:14:06.751Z,36.40
2022-12-04T07:16:39.891Z,33.75
2022-12-04T07:19:11.686Z,35.38
2022-12-04T07:21:38.369Z,33.88
2022-12-04T07:24:05.127Z,36.22
2022-12-04T07:26:31.775Z,38.45
2022-12-04T07:28:59.010Z,42.67
2022-12-04T07:31:27.086Z,39.30
2022-12-04T07:33:54.532Z,44.58
2022-12-04T07:36:22.154Z,50.77
2022-12-04T07:38:49.127Z,39.73
2022-12-04T07:41:16.579Z,44.55
2022-12-04T07:43:43.448Z,37.53
2022-12-04T07:46:18.597Z,37.03
2022-12-04T07:48:45.242Z,44.55
2022-12-04T07:51:20.367Z,41.67
2022-12-04T07:53:47.698Z,43.47
2022-12-04T07:56:15.948Z,42.17
2022-12-04T07:58:43.042Z,37.63
2022-12-04T08:01:12.618Z,39.78
2022-12-04T08:03:47.676Z,38.67
2022-12-04T08:06:17.189Z,42.60
2022-12-04T08:08:43.945Z,49.92
2022-12-04T08:11:13.063Z,40.40
2022-12-04T08:13:39.830Z,45.08
2022-12-04T08:16:08.093Z,51.65
2022-12-04T08:18:34.785Z,50.50
2022-12-04T08:21:09.566Z,49.92
2022-12-04T08:23:37.075Z,49.65
2022-12-04T08:26:04.218Z,52.83
2022-12-04T08:28:31.102Z,54.97
2022-12-04T08:31:05.981Z,46.28
2022-12-04T08:33:33.397Z,51.63
2022-12-04T08:36:00.561Z,59.65
2022-12-04T08:38:27.140Z,52.38
2022-12-04T08:40:53.698Z,57.15
2022-12-04T08:43:20.241Z,52.55
2022-12-04T08:45:55.503Z,61.40
2022-12-04T08:48:22.159Z,59.08
2022-12-04T08:50:48.702Z,61.33
2022-12-04T08:53:15.284Z,53.08
2022-12-04T08:55:41.900Z,57.78
2022-12-04T08:58:08.548Z,55.92
2022-12-04T09:00:35.263Z,58.60
2022-12-04T09:03:01.872Z,60.20
2022-12-04T09:05:30.003Z,66.40
2022-12-04T09:07:56.855Z,62.45
2022-12-04T09:10:24.020Z,64.03
2022-12-04T09:12:50.675Z,52.05
2022-12-04T09:15:17.427Z,58.88
2022-12-04T09:17:43.966Z,60.88
2022-12-04T09:20:10.782Z,58.83
2022-12-04T09:23:02.176Z,58.38
2022-12-04T09:25:25.147Z,61.92
2022-12-04T09:27:51.695Z,60.55
2022-12-04T09:30:18.399Z,58.13
2022-12-04T09:32:44.966Z,61.03
2022-12-04T09:35:11.510Z,55.35
2022-12-04T09:37:38.599Z,67.75
2022-12-04T09:40:06.794Z,62.03
2022-12-04T09:43:00.979Z,59.50
2022-12-04T09:45:27.887Z,58.65
2022-12-04T09:47:57.263Z,68.65
2022-12-04T09:50:28.549Z,61.13
2022-12-04T09:53:00.098Z,60.10
2022-12-04T09:55:37.478Z,63.20
2022-12-04T09:58:05.811Z,59.07
2022-12-04T10:00:36.526Z,54.20
2022-12-04T10:03:06.440Z,69.82
2022-12-04T10:05:45.263Z,61.75
2022-12-04T10:08:29.140Z,63.72
2022-12-04T10:11:16.075Z,62.22
2022-12-04T10:14:13.691Z,66.45
2022-12-04T10:16:43.288Z,63.03
2022-12-04T10:19:43.644Z,63.00
2022-12-04T10:22:43.849Z,72.82
2022-12-04T10:25:15.835Z,62.95
2022-12-04T10:27:46.743Z,62.55
2022-12-04T10:30:23.393Z,58.08
2022-12-04T10:33:03.949Z,55.30
2022-12-04T10:35:31.930Z,68.22
2022-12-04T10:38:22.660Z,73.35
2022-12-04T10:41:07.753Z,68.75
2022-12-04T10:43:49.532Z,59.28
2022-12-04T10:46:23.565Z,58.17
2022-12-04T10:48:53.947Z,63.67
2022-12-04T10:51:22.219Z,60.00
2022-12-04T10:53:49.483Z,58.58
2022-12-04T10:56:21.911Z,54.13
2022-12-04T10:59:05.122Z,56.97
2022-12-04T11:01:33.837Z,50.50
2022-12-04T11:04:20.438Z,53.13
2022-12-04T11:06:49.886Z,51.83
2022-12-04T11:09:24.042Z,49.08
2022-12-04T11:11:51.632Z,59.10
2022-12-04T11:14:22.012Z,64.17
2022-12-04T11:16:59.619Z,54.45
2022-12-04T11:19:28.796Z,58.78
2022-12-04T11:22:00.811Z,51.45
2022-12-04T11:24:34.306Z,57.80
2022-12-04T11:27:02.193Z,56.55
2022-12-04T11:29:36.127Z,64.72
2022-12-04T11:32:07.485Z,54.88
2022-12-04T11:34:37.936Z,59.00
2022-12-04T11:37:05.035Z,59.97
2022-12-04T11:39:35.615Z,60.67
2022-12-04T11:42:06.810Z,62.95
2022-12-04T11:44:35.478Z,56.53
2022-12-04T11:47:03.987Z,55.35
2022-12-04T11:49:32.318Z,62.20
2022-12-04T11:52:22.455Z,58.97
2022-12-04T11:55:04.415Z,55.53
2022-12-04T11:57:45.366Z,60.25
2022-12-04T12:00:14.706Z,62.55
2022-12-04T12:02:46.947Z,58.70
2022-12-04T12:05:33.780Z,65.97
2022-12-04T12:08:27.055Z,58.40
2022-12-04T12:10:57.446Z,67.30
2022-12-04T12:14:06.630Z,65.38
2022-12-04T12:16:48.563Z,64.35
2022-12-04T12:19:44.611Z,63.75
2022-12-04T12:22:26.196Z,67.53
2022-12-04T12:25:01.630Z,68.13
2022-12-04T12:27:50.549Z,64.95
2022-12-04T12:30:20.691Z,62.90
2022-12-04T12:33:15.182Z,62.42
2022-12-04T12:35:52.760Z,64.68
2022-12-04T12:38:26.211Z,63.85
2022-12-04T12:40:59.138Z,53.97
2022-12-04T12:43:39.371Z,61.75
2022-12-04T12:46:06.098Z,57.00
2022-12-04T12:48:38.102Z,57.22
2022-12-04T12:51:29.227Z,59.42
2022-12-04T12:54:00.031Z,62.28
2022-12-04T12:56:35.106Z,64.40
2022-12-04T12:59:03.864Z,56.10
2022-12-04T13:01:47.854Z,66.68
2022-12-04T13:04:25.933Z,65.80
2022-12-04T13:06:58.631Z,59.03
2022-12-04T13:09:29.845Z,68.97
2022-12-04T13:12:05.187Z,73.40
2022-12-04T13:14:31.829Z,63.13
2022-12-04T13:17:24.846Z,59.15
2022-12-04T13:19:54.772Z,63.78
2022-12-04T13:22:37.699Z,75.57
2022-12-04T13:25:10.199Z,65.68
2022-12-04T13:27:59.029Z,68.47
2022-12-04T13:30:33.402Z,61.08
2022-12-04T13:33:18.429Z,59.08
2022-12-04T13:36:12.853Z,67.80
2022-12-04T13:38:58.087Z,78.38
2022-12-04T13:41:26.545Z,61.38
2022-12-04T13:43:53.707Z,77.80
2022-12-04T13:46:36.899Z,62.70
2022-12-04T13:49:28.988Z,64.75
2022-12-04T13:51:57.404Z,68.53
2022-12-04T13:57:18.022Z,63.13
2022-12-04T13:59:45.146Z,62.45
2022-12-04T14:02:35.281Z,61.95
2022-12-04T14:05:08.140Z,63.33
2022-12-04T14:07:39.789Z,73.30
2022-12-04T14:10:28.269Z,67.25
2022-12-04T14:13:13.253Z,69.60
2022-12-04T14:15:40.182Z,67.57
2022-12-04T14:18:13.287Z,67.85
2022-12-04T14:20:41.887Z,65.88
2022-12-04T14:23:19.970Z,63.17
2022-12-04T14:25:46.530Z,62.13
2022-12-04T14:28:32.086Z,65.00
2022-12-04T14:31:13.602Z,68.88
2022-12-04T14:33:59.939Z,68.55
2022-12-04T14:36:29.032Z,53.55
2022-12-04T14:39:05.912Z,65.35
2022-12-04T14:41:32.713Z,57.03
2022-12-04T14:43:59.586Z,61.35
2022-12-04T14:46:32.703Z,61.15
2022-12-04T14:49:31.804Z,64.40
2022-12-04T14:52:32.774Z,59.10
2022-12-04T14:55:35.699Z,62.60
2022-12-04T14:58:31.683Z,55.70
2022-12-04T15:01:04.211Z,60.65
2022-12-04T15:03:37.141Z,51.45
2022-12-04T15:06:20.559Z,61.92
2022-12-04T15:09:15.215Z,48.45
2022-12-04T15:12:12.346Z,53.95
2022-12-04T15:14:43.161Z,50.53
2022-12-04T15:17:15.589Z,55.15
2022-12-04T15:19:42.447Z,57.33
2022-12-04T15:22:23.661Z,56.90
2022-12-04T15:24:51.050Z,50.00
2022-12-04T15:27:20.519Z,55.58
2022-12-04T15:29:51.477Z,53.78
2022-12-04T15:32:20.734Z,52.83
2022-12-04T15:34:55.876Z,48.65
2022-12-04T15:37:32.343Z,47.22
2022-12-04T15:39:59.416Z,47.30
2022-12-04T15:42:28.689Z,52.63
2022-12-04T15:45:03.666Z,47.85
2022-12-04T15:47:38.496Z,46.17
2022-12-04T15:50:22.436Z,42.97
2022-12-04T15:53:23.523Z,42.47
2022-12-04T15:55:53.188Z,52.03
2022-12-04T15:58:29.003Z,50.05
2022-12-04T16:00:58.864Z,47.40
2022-12-04T16:03:30.978Z,49.40
2022-12-04T16:06:03.732Z,49.97
2022-12-04T16:08:36.316Z,47.13
2022-12-04T16:11:23.143Z,43.22
2022-12-04T16:14:02.778Z,50.72
2022-12-04T16:16:29.529Z,47.53
2022-12-04T16:18:56.453Z,50.75
2022-12-04T16:21:28.160Z,45.75
2022-12-04T16:23:54.745Z,48.05
2022-12-04T16:26:21.307Z,55.58
2022-12-04T16:28:47.948Z,53.03
2022-12-04T16:31:14.662Z,47.38
2022-12-04T16:33:41.289Z,55.53
2022-12-04T16:36:10.641Z,46.55
2022-12-04T16:38:37.472Z,54.15
2022-12-04T16:41:10.521Z,49.50
2022-12-04T16:43:37.106Z,51.90
2022-12-04T16:46:03.708Z,48.03
2022-12-04T16:48:34.656Z,42.17
2022-12-04T16:51:01.202Z,54.10
2022-12-04T16:53:27.729Z,48.67
2022-12-04T16:55:54.267Z,50.67
2022-12-04T16:58:21.187Z,45.25
2022-12-04T17:00:55.480Z,51.25
2022-12-04T17:03:25.386Z,46.22
2022-12-04T17:05:51.969Z,55.58
2022-12-04T17:08:18.598Z,46.08
2022-12-04T17:10:45.181Z,52.33
2022-12-04T17:13:11.798Z,47.10
2022-12-04T17:15:38.440Z,52.78
2022-12-04T17:18:11.152Z,53.33
2022-12-04T17:20:43.898Z,51.08
2022-12-04T17:23:12.040Z,52.88
2022-12-04T17:25:38.920Z,50.97
2022-12-04T17:28:05.575Z,48.78
2022-12-04T17:30:35.964Z,56.55
2022-12-04T17:33:03.629Z,52.25
2022-12-04T17:35:30.209Z,46.47
2022-12-04T17:38:02.076Z,52.35
2022-12-04T17:40:32.424Z,46.90
2022-12-04T17:42:58.965Z,54.95
2022-12-04T17:45:25.584Z,50.13
2022-12-04T17:47:52.138Z,47.38
2022-12-04T17:50:18.711Z,48.20
2022-12-04T17:52:45.298Z,46.38
2022-12-04T17:55:11.886Z,40.97
2022-12-04T17:57:38.501Z,39.83
2022-12-04T18:00:05.941Z,44.40
2022-12-04T18:02:32.536Z,43.28
2022-12-04T18:04:59.245Z,45.03
2022-12-04T18:07:26.012Z,43.05
2022-12-04T18:09:52.620Z,44.38
2022-12-04T18:12:19.198Z,38.78
2022-12-04T18:14:45.747Z,45.53
2022-12-04T18:17:12.343Z,44.97
2022-12-04T18:19:38.903Z,43.90
2022-12-04T18:22:05.592Z,42.00
2022-12-04T18:24:32.930Z,40.10
2022-12-04T18:26:59.499Z,41.17
2022-12-04T18:29:26.607Z,42.25
2022-12-04T18:31:53.869Z,44.85
2022-12-04T18:34:21.365Z,42.30
2022-12-04T18:36:49.040Z,40.20
2022-12-04T18:39:18.303Z,42.85
2022-12-04T18:41:45.436Z,43.33
2022-12-04T18:44:12.084Z,42.50
2022-12-04T18:46:39.132Z,42.55
2022-12-04T18:49:06.290Z,44.83
2022-12-04T18:51:36.034Z,42.45
2022-12-04T18:54:05.888Z,40.83
2022-12-04T18:56:33.774Z,42.60
2022-12-04T18:59:04.987Z,46.85
2022-12-04T19:01:31.798Z,43.30
2022-12-04T19:04:02.244Z,47.88
2022-12-04T19:06:34.672Z,53.22
2022-12-04T19:09:04.789Z,45.60
2022-12-04T19:11:32.026Z,48.65
2022-12-04T19:13:59.653Z,43.97
2022-12-04T19:16:26.448Z,41.35
2022-12-04T19:18:53.039Z,49.33
2022-12-04T19:21:19.934Z,48.40
2022-12-04T19:23:53.126Z,47.83
2022-12-04T19:26:19.668Z,48.00
2022-12-04T19:28:46.461Z,50.60
2022-12-04T19:31:17.539Z,49.53
2022-12-04T19:33:44.316Z,53.42
2022-12-04T19:36:12.517Z,59.22
2022-12-04T19:38:39.190Z,50.35
2022-12-04T19:41:12.103Z,49.28
2022-12-04T19:43:40.201Z,50.05
2022-12-04T19:46:07.879Z,43.33
2022-12-04T19:48:35.597Z,48.90
2022-12-04T19:51:15.079Z,52.10
2022-12-04T19:53:42.743Z,56.20
2022-12-04T19:56:18.541Z,58.65
2022-12-04T19:58:45.245Z,52.25
2022-12-04T20:01:15.525Z,51.42
2022-12-04T20:03:42.798Z,61.78
2022-12-04T20:06:12.486Z,58.30
2022-12-04T20:08:39.464Z,58.67
2022-12-04T20:11:09.413Z,53.85
2022-12-04T20:13:36.465Z,54.67
2022-12-04T20:16:04.371Z,53.85
2022-12-04T20:18:31.237Z,62.60
2022-12-04T20:20:59.238Z,60.80
2022-12-04T20:23:25.991Z,61.33
2022-12-04T20:25:52.646Z,49.28
2022-12-04T20:28:19.270Z,53.47
2022-12-04T20:30:46.055Z,58.72
2022-12-04T20:33:13.191Z,59.40
2022-12-04T20:35:39.982Z,57.25
2022-12-04T20:38:06.859Z,54.63
2022-12-04T20:40:34.155Z,54.70
2022-12-04T20:43:00.744Z,59.17
2022-12-04T20:45:27.387Z,52.55
2022-12-04T20:47:55.047Z,54.33
2022-12-04T20:50:21.618Z,59.35
2022-12-04T20:52:48.396Z,57.60
2022-12-04T20:55:15.028Z,55.38
2022-12-04T20:57:41.590Z,52.33
2022-12-04T21:00:08.816Z,66.20
2022-12-04T21:02:35.477Z,57.10
2022-12-04T21:05:02.048Z,57.28
2022-12-04T21:07:28.632Z,50.45
2022-12-04T21:09:55.661Z,58.83
2022-12-04T21:12:43.345Z,64.07
2022-12-04T21:15:28.776Z,56.78
2022-12-04T21:17:55.370Z,61.80
2022-12-04T21:20:21.934Z,51.75
2022-12-04T21:22:48.475Z,60.45
2022-12-04T21:25:15.095Z,57.13
2022-12-04T21:27:41.741Z,55.95
2022-12-04T21:30:08.980Z,58.80
2022-12-04T21:32:35.597Z,59.35
2022-12-04T21:35:02.218Z,55.25
2022-12-04T21:37:28.778Z,59.35
2022-12-04T21:39:55.735Z,55.20
2022-12-04T21:42:31.622Z,56.20
2022-12-04T21:45:02.589Z,51.10
2022-12-04T21:47:29.931Z,55.53
2022-12-04T21:49:56.673Z,58.47
2022-12-04T21:52:23.508Z,54.50
2022-12-04T21:54:54.126Z,53.15
2022-12-04T21:57:21.839Z,52.28
2022-12-04T21:59:48.794Z,57.90
2022-12-04T22:02:16.075Z,55.42
2022-12-04T22:04:42.850Z,59.75
2022-12-04T22:07:09.787Z,62.15
2022-12-04T22:09:37.691Z,51.65
2022-12-04T22:12:26.340Z,55.13
2022-12-04T22:14:51.347Z,55.88
2022-12-04T22:17:17.952Z,53.53
2022-12-04T22:19:44.553Z,55.92
2022-12-04T22:22:11.238Z,61.63
2022-12-04T22:24:37.845Z,59.33
2022-12-04T22:27:04.375Z,53.72
2022-12-04T22:32:17.718Z,50.67
2022-12-04T22:34:44.311Z,55.15
2022-12-04T22:37:11.019Z,56.35
2022-12-04T22:39:37.584Z,59.70
2022-12-04T22:42:04.295Z,59.78
2022-12-04T22:44:30.854Z,55.92
2022-12-04T22:46:57.441Z,56.20
2022-12-04T22:49:24.079Z,54.40
2022-12-04T22:51:50.618Z,55.85
2022-12-04T22:54:17.164Z,55.47
2022-12-04T22:56:44.285Z,55.95
2022-12-04T22:59:10.853Z,50.55
2022-12-04T23:01:37.410Z,53.83
2022-12-04T23:04:04.007Z,50.60
2022-12-04T23:06:33.030Z,51.60
2022-12-04T23:09:01.987Z,53.33
2022-12-04T23:11:29.059Z,51.95
2022-12-04T23:14:00.058Z,49.70
2022-12-04T23:16:29.468Z,61.60
2022-12-04T23:18:56.703Z,47.30
2022-12-04T23:21:23.880Z,51.38
2022-12-04T23:23:51.820Z,45.55
2022-12-04T23:26:21.673Z,54.00
2022-12-04T23:28:48.236Z,50.15
2022-12-04T23:31:15.336Z,54.35
2022-12-04T23:33:42.206Z,49.47
2022-12-04T23:36:10.547Z,49.80
2022-12-04T23:38:38.506Z,48.25
2022-12-04T23:41:08.377Z,50.83
2022-12-04T23:43:35.317Z,58.50
2022-12-04T23:46:07.238Z,43.50
2022-12-04T23:48:37.273Z,44.38
2022-12-04T23:51:03.890Z,52.72
2022-12-04T23:53:30.457Z,54.58
2022-12-04T23:55:58.645Z,47.75
2022-12-04T23:58:25.775Z,58.05
